createdAt,value
2022-11-07T00:00:20.057Z,8.48
2022-11-07T00:02:50.580Z,8.50
2022-11-07T00:05:21.805Z,8.51
2022-11-07T00:07:52.283Z,8.54
2022-11-07T00:10:23.029Z,8.55
2022-11-07T00:12:53.472Z,8.63
2022-11-07T00:15:26.757Z,8.76
2022-11-07T00:17:57.194Z,8.92
2022-11-07T00:20:27.840Z,9.06
2022-11-07T00:22:58.347Z,9.21
2022-11-07T00:25:28.952Z,9.36
2022-11-07T00:27:59.429Z,9.51
2022-11-07T00:30:32.597Z,9.64
2022-11-07T00:33:03.074Z,9.77
2022-11-07T00:35:33.674Z,9.88
2022-11-07T00:38:04.278Z,9.98
2022-11-07T00:40:34.812Z,10.08
2022-11-07T00:43:05.873Z,10.17
2022-11-07T00:45:39.406Z,10.26
2022-11-07T00:48:10.088Z,10.33
2022-11-07T00:50:40.809Z,10.42
2022-11-07T00:53:11.575Z,10.48
2022-11-07T00:55:42.400Z,10.53
2022-11-07T00:58:14.347Z,10.57
2022-11-07T01:00:47.754Z,10.61
2022-11-07T01:03:30.566Z,10.64
2022-11-07T01:06:01.985Z,10.66
2022-11-07T01:08:33.444Z,10.67
2022-11-07T01:11:07.714Z,10.69
2022-11-07T01:13:38.582Z,10.70
2022-11-07T01:16:12.262Z,10.72
2022-11-07T01:18:43.173Z,10.73
2022-11-07T01:21:16.627Z,10.76
2022-11-07T01:23:47.296Z,10.79
2022-11-07T01:26:18.296Z,10.83
2022-11-07T01:28:48.769Z,10.84
2022-11-07T01:31:22.287Z,10.86
2022-11-07T01:33:52.775Z,10.91
2022-11-07T01:36:23.342Z,10.93
2022-11-07T01:38:53.788Z,10.96
2022-11-07T01:41:27.304Z,10.97
2022-11-07T01:44:01.762Z,11.00
2022-11-07T01:46:38.001Z,11.02
2022-11-07T01:49:12.612Z,11.05
2022-11-07T01:51:49.440Z,11.06
2022-11-07T01:54:22.343Z,11.07
2022-11-07T01:56:54.402Z,11.11
2022-11-07T01:59:29.756Z,11.09
2022-11-07T02:02:03.576Z,11.12
2022-11-07T02:04:34.910Z,11.14
2022-11-07T02:07:10.576Z,11.15
2022-11-07T02:09:41.217Z,11.17
2022-11-07T02:12:11.872Z,11.19
2022-11-07T02:14:44.325Z,11.20
2022-11-07T02:17:18.449Z,11.23
2022-11-07T02:19:51.723Z,11.23
2022-11-07T02:22:31.647Z,11.26
2022-11-07T02:25:07.137Z,11.27
2022-11-07T02:27:37.923Z,11.26
2022-11-07T02:30:12.717Z,11.28
2022-11-07T02:32:43.357Z,11.28
2022-11-07T02:35:49.073Z,11.29
2022-11-07T02:38:23.346Z,11.29
2022-11-07T02:41:00.154Z,11.27
2022-11-07T02:43:32.940Z,11.28
2022-11-07T02:46:05.994Z,11.29
2022-11-07T02:48:45.118Z,11.29
2022-11-07T02:51:15.899Z,11.30
2022-11-07T02:53:46.665Z,11.30
2022-11-07T02:56:20.039Z,11.31
2022-11-07T02:58:52.655Z,11.32
2022-11-07T03:01:25.393Z,11.33
2022-11-07T03:03:56.009Z,11.33
2022-11-07T03:06:29.041Z,11.33
2022-11-07T03:08:59.477Z,11.34
2022-11-07T03:11:32.688Z,11.36
2022-11-07T03:14:03.150Z,11.36
2022-11-07T03:16:33.774Z,11.35
2022-11-07T03:19:04.222Z,11.35
2022-11-07T03:21:34.783Z,11.36
2022-11-07T03:24:05.268Z,11.36
2022-11-07T03:26:38.297Z,11.36
2022-11-07T03:29:08.775Z,11.36
2022-11-07T03:31:39.828Z,11.35
2022-11-07T03:34:10.397Z,11.36
2022-11-07T03:36:40.883Z,11.35
2022-11-07T03:39:11.406Z,11.34
2022-11-07T03:41:44.676Z,11.33
2022-11-07T03:44:15.117Z,11.33
2022-11-07T03:46:45.852Z,11.33
2022-11-07T03:49:16.449Z,11.32
2022-11-07T03:51:47.063Z,11.31
2022-11-07T03:54:17.697Z,11.30
2022-11-07T03:56:50.851Z,11.31
2022-11-07T03:59:21.302Z,11.30
2022-11-07T04:01:52.022Z,11.30
2022-11-07T04:04:22.737Z,11.29
2022-11-07T04:06:53.335Z,11.30
2022-11-07T04:09:23.948Z,11.30
2022-11-07T05:03:53.013Z,12.08
2022-11-07T05:06:23.668Z,12.03
2022-11-07T05:08:54.083Z,11.97
2022-11-07T05:11:24.639Z,11.92
2022-11-07T05:13:55.068Z,11.86
2022-11-07T05:16:25.494Z,11.82
2022-11-07T05:19:39.486Z,11.76
2022-11-07T05:22:22.138Z,11.73
2022-11-07T05:24:52.563Z,11.69
2022-11-07T05:27:23.842Z,11.64
2022-11-07T05:29:54.638Z,11.63
2022-11-07T05:32:25.551Z,11.60
2022-11-07T05:34:58.571Z,11.58
2022-11-07T05:37:29.107Z,11.56
2022-11-07T05:39:59.557Z,11.54
2022-11-07T05:42:30.099Z,11.52
2022-11-07T05:45:00.554Z,11.51
2022-11-07T05:47:31.078Z,11.51
2022-11-07T05:50:04.090Z,11.50
2022-11-07T05:52:35.592Z,11.49
2022-11-07T05:55:06.330Z,11.40
2022-11-07T05:57:36.814Z,11.50
2022-11-07T06:00:08.717Z,11.51
2022-11-07T06:02:43.016Z,11.51
2022-11-07T06:05:19.323Z,11.53
2022-11-07T06:07:52.340Z,11.56
2022-11-07T06:10:23.206Z,11.57
2022-11-07T06:13:00.919Z,11.60
2022-11-07T06:15:33.147Z,11.62
2022-11-07T06:18:04.537Z,11.65
2022-11-07T06:20:38.662Z,11.66
2022-11-07T06:23:09.539Z,11.68
2022-11-07T06:25:40.121Z,11.69
2022-11-07T06:28:12.391Z,11.72
2022-11-07T06:30:43.114Z,11.75
2022-11-07T06:33:16.573Z,11.80
2022-11-07T06:35:50.327Z,11.80
2022-11-07T06:38:21.042Z,11.84
2022-11-07T06:40:51.754Z,11.86
2022-11-07T06:43:22.936Z,11.88
2022-11-07T06:45:53.330Z,11.90
2022-11-07T06:48:24.015Z,11.90
2022-11-07T06:51:03.232Z,11.98
2022-11-07T06:53:33.882Z,12.01
2022-11-07T06:56:06.078Z,12.08
2022-11-07T06:58:36.882Z,12.10
2022-11-07T07:01:10.053Z,12.13
2022-11-07T07:03:40.556Z,12.16
2022-11-07T07:06:16.842Z,12.20
2022-11-07T07:08:48.358Z,12.23
2022-11-07T07:11:19.636Z,12.26
2022-11-07T07:13:50.108Z,12.30
2022-11-07T07:16:20.734Z,12.31
2022-11-07T07:18:51.241Z,12.32
2022-11-07T07:21:24.258Z,12.33
2022-11-07T07:23:54.834Z,12.35
2022-11-07T07:26:25.723Z,12.36
2022-11-07T07:28:56.241Z,12.40
2022-11-07T07:31:31.452Z,12.41
2022-11-07T07:34:02.092Z,12.43
2022-11-07T07:36:35.779Z,12.46
2022-11-07T07:39:06.476Z,12.47
2022-11-07T07:41:40.229Z,12.46
2022-11-07T07:44:11.175Z,12.52
2022-11-07T07:46:41.591Z,12.54
2022-11-07T07:49:12.437Z,12.55
2022-11-07T07:51:45.766Z,12.58
2022-11-07T07:54:16.443Z,12.64
2022-11-07T07:56:46.907Z,12.71
2022-11-07T07:59:17.447Z,12.75
2022-11-07T08:01:50.971Z,12.81
2022-11-07T08:04:25.910Z,12.88
2022-11-07T08:06:58.971Z,12.94
2022-11-07T08:09:31.705Z,13.04
2022-11-07T08:12:02.211Z,13.14
2022-11-07T08:14:33.092Z,13.23
2022-11-07T08:17:04.164Z,13.34
2022-11-07T08:19:34.719Z,13.46
2022-11-07T08:22:07.725Z,13.58
2022-11-07T08:24:38.257Z,13.70
2022-11-07T08:27:08.676Z,13.79
2022-11-07T08:29:39.212Z,13.86
2022-11-07T08:32:09.715Z,13.90
2022-11-07T08:34:40.226Z,13.91
2022-11-07T08:37:13.373Z,13.94
2022-11-07T08:39:43.945Z,14.02
2022-11-07T08:42:14.376Z,14.10
2022-11-07T08:44:44.879Z,14.19
2022-11-07T08:47:15.380Z,14.28
2022-11-07T08:49:46.062Z,14.39
2022-11-07T08:52:19.095Z,14.48
2022-11-07T08:54:49.703Z,14.52
2022-11-07T08:57:20.212Z,14.58
2022-11-07T08:59:50.886Z,14.60
2022-11-07T09:03:08.480Z,14.62
2022-11-07T09:05:12.493Z,14.60
2022-11-07T09:07:45.618Z,14.57
2022-11-07T09:10:16.515Z,14.55
2022-11-07T09:12:51.630Z,14.44
2022-11-07T09:15:22.035Z,14.55
2022-11-07T09:17:53.353Z,14.55
2022-11-07T09:20:24.366Z,14.55
2022-11-07T09:23:02.509Z,14.57
2022-11-07T09:25:33.177Z,14.60
2022-11-07T09:28:05.921Z,14.63
2022-11-07T09:30:36.506Z,14.64
2022-11-07T09:33:07.122Z,14.66
2022-11-07T09:35:37.684Z,14.68
2022-11-07T09:38:10.907Z,14.71
2022-11-07T09:40:50.448Z,14.74
2022-11-07T09:43:31.811Z,14.76
2022-11-07T09:46:13.221Z,14.76
2022-11-07T09:48:47.632Z,14.77
2022-11-07T09:51:33.845Z,14.77
2022-11-07T09:54:09.173Z,14.76
2022-11-07T09:56:39.691Z,14.77
2022-11-07T09:59:15.445Z,14.77
2022-11-07T10:01:46.111Z,14.80
2022-11-07T10:04:26.063Z,14.82
2022-11-07T10:07:03.068Z,14.87
2022-11-07T10:09:46.639Z,14.90
2022-11-07T10:12:36.041Z,14.93
2022-11-07T10:15:19.660Z,15.01
2022-11-07T10:17:56.878Z,15.09
2022-11-07T10:20:43.561Z,15.20
2022-11-07T10:23:32.922Z,15.33
2022-11-07T10:26:11.710Z,15.47
2022-11-07T10:28:48.601Z,15.60
2022-11-07T10:31:19.622Z,15.74
2022-11-07T10:33:56.303Z,15.85
2022-11-07T10:36:28.448Z,15.95
2022-11-07T10:38:59.042Z,16.05
2022-11-07T10:41:34.636Z,16.11
2022-11-07T10:44:08.284Z,16.18
2022-11-07T10:46:42.206Z,16.27
2022-11-07T10:49:22.836Z,16.33
2022-11-07T10:51:54.556Z,16.33
2022-11-07T10:54:30.779Z,16.28
2022-11-07T10:57:08.669Z,16.24
2022-11-07T10:59:43.349Z,16.19
2022-11-07T11:02:23.834Z,16.14
2022-11-07T11:04:56.931Z,16.10
2022-11-07T11:07:29.537Z,16.06
2022-11-07T11:10:01.200Z,16.04
2022-11-07T11:12:37.863Z,16.02
2022-11-07T11:15:13.882Z,15.97
2022-11-07T11:17:45.150Z,15.93
2022-11-07T11:20:34.532Z,15.87
2022-11-07T11:23:07.773Z,15.87
2022-11-07T11:25:47.882Z,15.81
2022-11-07T11:28:27.120Z,15.79
2022-11-07T11:31:01.475Z,15.77
2022-11-07T11:33:40.149Z,15.75
2022-11-07T11:36:16.818Z,15.73
2022-11-07T11:38:54.687Z,15.69
2022-11-07T11:41:30.994Z,15.67
2022-11-07T11:44:09.821Z,15.68
2022-11-07T11:46:48.992Z,15.69
2022-11-07T11:49:24.782Z,15.71
2022-11-07T11:51:59.142Z,15.73
2022-11-07T11:54:29.665Z,15.77
2022-11-07T11:57:04.709Z,15.85
2022-11-07T12:00:07.429Z,15.97
2022-11-07T12:03:16.543Z,16.11
2022-11-07T12:06:20.390Z,16.24
2022-11-07T12:09:10.528Z,16.37
2022-11-07T12:11:57.358Z,16.43
2022-11-07T12:14:57.919Z,16.50
2022-11-07T12:17:35.970Z,16.54
2022-11-07T12:20:14.155Z,16.57
2022-11-07T12:22:56.113Z,16.63
2022-11-07T12:25:32.537Z,16.70
2022-11-07T12:28:28.296Z,16.75
2022-11-07T12:31:11.852Z,16.76
2022-11-07T12:33:48.649Z,16.73
2022-11-07T12:36:43.591Z,16.67
2022-11-07T12:39:46.137Z,16.60
2022-11-07T12:42:30.663Z,16.55
2022-11-07T12:45:12.990Z,16.50
2022-11-07T12:48:13.033Z,16.44
2022-11-07T12:50:50.032Z,16.39
2022-11-07T12:53:31.284Z,16.35
2022-11-07T12:56:06.747Z,16.30
2022-11-07T12:58:41.151Z,16.25
2022-11-07T13:01:14.721Z,16.21
2022-11-07T13:04:10.042Z,16.17
2022-11-07T13:06:45.776Z,16.13
2022-11-07T13:09:29.107Z,16.08
2022-11-07T13:12:12.047Z,16.04
2022-11-07T13:14:44.468Z,16.00
2022-11-07T13:17:20.217Z,15.95
2022-11-07T13:20:05.844Z,15.90
2022-11-07T13:22:38.265Z,15.87
2022-11-07T13:25:27.839Z,15.83
2022-11-07T13:28:24.156Z,15.79
2022-11-07T13:31:06.565Z,15.75
2022-11-07T13:33:39.198Z,15.74
2022-11-07T13:36:28.882Z,15.72
2022-11-07T13:39:02.586Z,15.69
2022-11-07T13:41:33.278Z,15.65
2022-11-07T13:44:06.435Z,15.58
2022-11-07T13:46:42.184Z,15.55
2022-11-07T13:49:20.507Z,15.52
2022-11-07T13:51:56.702Z,15.49
2022-11-07T13:54:34.259Z,15.46
2022-11-07T13:57:09.514Z,15.43
2022-11-07T13:59:47.145Z,15.39
2022-11-07T14:02:24.783Z,15.36
2022-11-07T14:07:58.218Z,15.26
2022-11-07T14:10:33.822Z,15.23
2022-11-07T14:13:09.064Z,15.17
2022-11-07T14:15:40.105Z,15.11
2022-11-07T14:18:15.922Z,15.04
2022-11-07T14:20:49.926Z,14.97
2022-11-07T14:23:24.616Z,14.91
2022-11-07T14:26:00.282Z,14.87
2022-11-07T14:28:37.404Z,14.83
2022-11-07T14:31:09.467Z,14.77
2022-11-07T14:33:40.121Z,14.74
2022-11-07T14:36:10.914Z,14.71
2022-11-07T14:38:50.948Z,14.64
2022-11-07T14:41:22.968Z,14.61
2022-11-07T14:43:54.603Z,14.54
2022-11-07T14:46:28.180Z,14.51
2022-11-07T14:48:59.616Z,14.50
2022-11-07T14:51:32.193Z,14.48
2022-11-07T14:54:08.999Z,14.45
2022-11-07T14:56:45.726Z,14.41
2022-11-07T14:59:17.614Z,14.30
2022-11-07T15:01:55.972Z,14.34
2022-11-07T15:04:32.700Z,14.30
2022-11-07T15:07:12.770Z,14.24
2022-11-07T15:09:45.927Z,14.21
2022-11-07T15:12:20.124Z,14.17
2022-11-07T15:15:03.611Z,14.13
2022-11-07T15:17:46.781Z,14.09
2022-11-07T15:20:25.915Z,14.01
2022-11-07T15:22:56.359Z,13.99
2022-11-07T15:25:37.887Z,13.95
2022-11-07T15:28:25.682Z,13.91
2022-11-07T15:30:57.936Z,13.86
2022-11-07T15:33:30.414Z,13.81
2022-11-07T15:36:05.209Z,13.76
2022-11-07T15:38:35.703Z,13.68
2022-11-07T15:41:09.295Z,13.63
2022-11-07T15:43:39.812Z,13.58
2022-11-07T15:46:24.051Z,13.53
2022-11-07T15:48:54.677Z,13.47
2022-11-07T15:51:25.291Z,13.44
2022-11-07T15:53:55.772Z,13.39
2022-11-07T15:56:29.756Z,13.31
2022-11-07T15:59:00.481Z,13.24
2022-11-07T16:01:31.494Z,13.18
2022-11-07T16:04:02.177Z,13.10
2022-11-07T16:06:35.521Z,13.03
2022-11-07T16:09:07.431Z,12.98
2022-11-07T16:11:40.623Z,12.93
2022-11-07T16:14:42.213Z,12.89
2022-11-07T16:17:27.972Z,12.84
2022-11-07T16:22:55.273Z,12.55
2022-11-07T16:25:27.945Z,12.62
2022-11-07T16:28:04.709Z,12.54
2022-11-07T16:30:36.053Z,12.48
2022-11-07T16:33:06.739Z,12.41
2022-11-07T16:35:37.207Z,12.35
2022-11-07T16:38:14.539Z,12.29
2022-11-07T16:40:45.646Z,12.25
2022-11-07T16:43:19.690Z,12.20
2022-11-07T16:45:53.104Z,12.14
2022-11-07T16:48:26.327Z,12.10
2022-11-07T16:51:00.695Z,12.05
2022-11-07T16:53:31.177Z,11.99
2022-11-07T16:56:06.412Z,11.94
2022-11-07T16:58:42.168Z,11.87
2022-11-07T17:01:13.181Z,11.82
2022-11-07T17:03:43.975Z,11.75
2022-11-07T17:06:21.531Z,11.70
2022-11-07T17:08:52.195Z,11.64
2022-11-07T17:11:22.726Z,11.59
2022-11-07T17:13:56.124Z,11.51
2022-11-07T17:16:30.072Z,11.45
2022-11-07T17:19:00.727Z,11.40
2022-11-07T17:21:33.408Z,11.33
2022-11-07T17:24:04.889Z,11.28
2022-11-07T17:26:39.041Z,11.22
2022-11-07T17:29:16.049Z,11.16
2022-11-07T17:31:46.708Z,11.10
2022-11-07T17:34:17.307Z,11.05
2022-11-07T17:36:50.863Z,10.98
2022-11-07T17:39:22.875Z,10.96
2022-11-07T17:41:53.972Z,10.88
2022-11-07T17:44:27.352Z,10.86
2022-11-07T17:47:02.045Z,10.82
2022-11-07T17:49:32.697Z,10.76
2022-11-07T17:52:03.469Z,10.71
2022-11-07T17:54:34.024Z,10.68
2022-11-07T17:57:09.052Z,10.60
2022-11-07T17:59:45.862Z,10.59
2022-11-07T18:02:18.898Z,10.53
2022-11-07T18:04:49.803Z,10.48
2022-11-07T18:07:20.431Z,10.45
2022-11-07T18:09:53.220Z,10.40
2022-11-07T18:12:23.785Z,10.34
2022-11-07T18:14:57.062Z,10.29
2022-11-07T18:17:27.765Z,10.24
2022-11-07T18:19:58.532Z,10.18
2022-11-07T18:22:29.028Z,10.13
2022-11-07T18:24:59.675Z,10.06
2022-11-07T18:27:30.233Z,10.00
2022-11-07T18:30:03.632Z,9.96
2022-11-07T18:32:36.330Z,9.90
2022-11-07T18:35:07.458Z,9.85
2022-11-07T18:37:37.975Z,9.81
2022-11-07T18:40:10.151Z,9.77
2022-11-07T18:42:40.664Z,9.72
2022-11-07T18:45:14.483Z,9.68
2022-11-07T18:47:44.908Z,9.62
2022-11-07T18:50:15.522Z,9.53
2022-11-07T18:52:45.980Z,9.45
2022-11-07T18:55:16.496Z,9.29
2022-11-07T18:57:47.336Z,9.33
2022-11-07T19:00:21.158Z,9.31
2022-11-07T19:02:53.787Z,9.26
2022-11-07T19:05:25.019Z,9.22
2022-11-07T19:07:55.473Z,9.20
2022-11-07T19:10:26.082Z,9.18
2022-11-07T19:12:56.531Z,9.15
2022-11-07T19:15:31.887Z,9.13
2022-11-07T19:18:02.314Z,9.10
2022-11-07T19:20:32.852Z,9.06
2022-11-07T19:23:03.268Z,9.02
2022-11-07T19:25:33.923Z,9.00
2022-11-07T19:28:04.404Z,8.96
2022-11-07T19:30:41.939Z,8.92
2022-11-07T19:33:17.050Z,8.86
2022-11-07T19:35:47.927Z,8.77
2022-11-07T19:38:18.455Z,8.76
2022-11-07T19:40:52.140Z,8.70
2022-11-07T19:43:22.620Z,8.64
2022-11-07T19:45:55.912Z,8.59
2022-11-07T19:48:26.340Z,8.54
2022-11-07T19:50:56.822Z,8.49
2022-11-07T19:53:27.604Z,8.44
2022-11-07T19:55:58.175Z,8.38
2022-11-07T19:58:28.655Z,8.31
2022-11-07T20:01:01.895Z,8.27
2022-11-07T20:03:32.922Z,8.21
2022-11-07T20:06:03.519Z,8.19
2022-11-07T20:08:34.154Z,8.15
2022-11-07T20:11:04.725Z,8.11
2022-11-07T20:13:35.222Z,8.10
2022-11-07T20:16:09.017Z,8.09
2022-11-07T20:18:40.312Z,8.08
2022-11-07T20:21:13.924Z,8.06
2022-11-07T20:23:46.011Z,8.03
2022-11-07T20:26:18.977Z,8.02
2022-11-07T20:28:50.546Z,7.98
2022-11-07T20:31:25.686Z,7.85
2022-11-07T20:33:56.690Z,7.90
2022-11-07T20:36:27.224Z,7.83
2022-11-07T20:38:58.513Z,7.81
2022-11-07T20:41:29.958Z,7.80
2022-11-07T20:44:04.090Z,7.76
2022-11-07T20:46:40.088Z,7.69
2022-11-07T20:49:14.707Z,7.48
2022-11-07T20:51:45.925Z,6.83
2022-11-07T20:54:17.135Z,6.13
2022-11-07T20:56:47.627Z,5.54
2022-11-07T20:59:18.198Z,5.18
2022-11-07T21:01:51.581Z,5.00
2022-11-07T21:04:22.497Z,4.89
2022-11-07T21:06:53.234Z,4.89
2022-11-07T21:09:24.683Z,4.80
2022-11-07T21:11:55.208Z,4.71
2022-11-07T21:14:25.670Z,4.66
2022-11-07T21:16:58.953Z,4.62
2022-11-07T21:19:29.895Z,4.79
2022-11-07T21:22:00.501Z,4.82
2022-11-07T21:24:32.895Z,4.61
2022-11-07T21:27:04.017Z,4.30
2022-11-07T21:29:35.466Z,4.35
2022-11-07T21:32:09.177Z,4.49
2022-11-07T21:34:42.932Z,4.58
2022-11-07T21:37:13.503Z,4.68
2022-11-07T21:39:43.985Z,4.75
2022-11-07T21:42:14.724Z,4.72
2022-11-07T21:44:45.234Z,4.60
2022-11-07T21:47:18.477Z,4.48
2022-11-07T21:49:51.103Z,4.44
2022-11-07T21:52:21.804Z,4.42
2022-11-07T21:54:52.270Z,4.48
2022-11-07T21:57:22.999Z,4.54
2022-11-07T21:59:53.514Z,4.58
2022-11-07T22:02:26.929Z,4.64
2022-11-07T22:04:57.520Z,4.68
2022-11-07T22:07:28.985Z,4.70
2022-11-07T22:10:00.156Z,4.74
2022-11-07T22:12:30.945Z,4.69
2022-11-07T22:15:01.456Z,4.76
2022-11-07T22:17:36.288Z,4.73
2022-11-07T22:20:07.363Z,4.76
2022-11-07T22:22:37.889Z,4.74
2022-11-07T22:25:09.534Z,4.79
2022-11-07T22:27:40.390Z,4.96
2022-11-07T22:30:12.465Z,5.07
2022-11-07T22:32:45.608Z,5.20
2022-11-07T22:35:16.164Z,5.35
2022-11-07T22:37:46.794Z,5.45
2022-11-07T22:40:20.286Z,5.61
2022-11-07T22:42:51.213Z,5.74
2022-11-07T22:45:21.695Z,5.85
2022-11-07T22:47:54.909Z,5.94
2022-11-07T22:50:25.465Z,6.03
2022-11-07T22:52:56.103Z,6.10
2022-11-07T22:55:26.739Z,6.18
2022-11-07T22:57:57.454Z,6.21
2022-11-07T23:00:27.846Z,6.25
2022-11-07T23:03:01.532Z,6.31
2022-11-07T23:05:31.967Z,6.36
2022-11-07T23:08:02.559Z,6.42
2022-11-07T23:10:32.988Z,6.46
2022-11-07T23:13:04.923Z,6.49
2022-11-07T23:15:35.560Z,6.52
2022-11-07T23:18:08.918Z,6.56
2022-11-07T23:20:51.720Z,6.55
2022-11-07T23:23:22.147Z,6.62
2022-11-07T23:25:52.644Z,6.63
2022-11-07T23:28:23.524Z,6.63
2022-11-07T23:30:54.419Z,6.66
2022-11-07T23:33:27.602Z,6.64
2022-11-07T23:36:02.136Z,6.66
2022-11-07T23:38:32.759Z,6.69
2022-11-07T23:41:05.598Z,6.71
2022-11-07T23:43:37.719Z,6.74
2022-11-07T23:46:21.252Z,6.77
2022-11-07T23:49:10.568Z,6.80
2022-11-07T23:51:44.009Z,6.82
2022-11-07T23:54:26.939Z,6.85
2022-11-07T23:56:57.744Z,6.86
2022-11-07T23:59:40.591Z,6.88
